Time;durP1;ratioP1;P1;durP2;ratioP2;P2;SDS_P1;SDS_P2;PMS_P1;PMS_P2;Temp;Humidity;BMP_temperature;BMP_pressure;BME280_temperature;BME280_humidity;BME280_pressure;Samples;Min_cycle;Max_cycle;Signal;HPM_P1;HPM_P2
2022/11/12 00:00:35;;;;;;;15.50;9.40;;;10.30;83.10;;;;;;5037695;28;20096;-68
2022/11/12 00:03:00;;;;;;;10.93;8.70;;;10.20;83.10;;;;;;5039294;28;20051;-68
2022/11/12 00:05:26;;;;;;;14.27;9.00;;;10.20;83.20;;;;;;5033756;28;20034;-68
2022/11/12 00:07:52;;;;;;;11.45;8.52;;;10.20;83.20;;;;;;5039279;28;20034;-69
2022/11/12 00:10:17;;;;;;;12.50;8.63;;;10.20;83.20;;;;;;5035106;28;20025;-69
2022/11/12 00:12:43;;;;;;;12.80;7.88;;;10.20;83.10;;;;;;5038763;28;20029;-68
2022/11/12 00:15:10;;;;;;;14.45;9.32;;;10.20;83.20;;;;;;5036081;28;20138;-69
2022/11/12 00:17:35;;;;;;;12.15;8.20;;;10.20;83.30;;;;;;5041210;28;20082;-68
2022/11/12 00:20:01;;;;;;;12.55;8.20;;;10.20;83.30;;;;;;5037040;28;20029;-68
2022/11/12 00:22:27;;;;;;;11.68;8.20;;;10.20;83.30;;;;;;5038536;28;20032;-68
2022/11/12 00:24:52;;;;;;;11.80;7.60;;;10.20;83.90;;;;;;5034954;28;20192;-68
2022/11/12 00:27:18;;;;;;;10.90;7.90;;;10.20;83.30;;;;;;5033714;28;20041;-68
2022/11/12 00:29:43;;;;;;;11.35;7.47;;;10.20;83.30;;;;;;5033013;28;20036;-68
2022/11/12 00:32:09;;;;;;;11.77;7.88;;;10.10;83.10;;;;;;5037071;28;20025;-68
2022/11/12 00:34:35;;;;;;;9.70;7.47;;;10.10;83.20;;;;;;5034607;28;20033;-69
2022/11/12 00:37:01;;;;;;;11.20;7.10;;;10.10;83.30;;;;;;5036496;28;20041;-68
2022/11/12 00:39:27;;;;;;;9.85;6.80;;;10.10;83.40;;;;;;5034788;28;20021;-68
2022/11/12 00:41:53;;;;;;;10.25;6.65;;;10.10;83.30;;;;;;5035727;28;20485;-67
2022/11/12 00:44:18;;;;;;;9.52;6.95;;;10.10;83.30;;;;;;5036622;28;20108;-68
2022/11/12 00:46:44;;;;;;;9.70;6.93;;;10.10;83.20;;;;;;5037149;28;20036;-67
2022/11/12 00:49:10;;;;;;;9.13;7.40;;;10.00;83.10;;;;;;5037507;28;20021;-68
2022/11/12 00:51:35;;;;;;;16.13;9.90;;;10.00;83.10;;;;;;5033709;28;20024;-67
2022/11/12 00:54:01;;;;;;;11.52;8.40;;;10.00;83.00;;;;;;5034936;28;20029;-67
2022/11/12 00:56:26;;;;;;;10.82;8.32;;;10.00;83.00;;;;;;5040194;28;20076;-68
2022/11/12 00:58:52;;;;;;;9.63;7.32;;;10.00;83.00;;;;;;5035208;28;20040;-67
2022/11/12 01:01:18;;;;;;;10.57;7.95;;;9.90;83.00;;;;;;5039066;28;20041;-68
2022/11/12 01:03:43;;;;;;;12.23;7.93;;;9.90;83.00;;;;;;5040546;28;20021;-69
2022/11/12 01:06:21;;;;;;;11.70;7.72;;;9.80;83.00;;;;;;5032268;28;20056;-68
2022/11/12 01:08:47;;;;;;;10.15;7.70;;;9.80;83.00;;;;;;5032044;28;20480;-68
2022/11/12 01:11:25;;;;;;;10.13;7.85;;;9.70;83.10;;;;;;5033814;28;20046;-68
2022/11/12 01:13:56;;;;;;;10.20;6.95;;;9.60;83.20;;;;;;5041602;28;20032;-67
2022/11/12 01:16:24;;;;;;;10.48;7.38;;;9.60;83.50;;;;;;5036009;28;20700;-66
2022/11/12 01:18:58;;;;;;;11.45;7.65;;;9.60;83.40;;;;;;5039463;28;20637;-67
2022/11/12 01:21:26;;;;;;;11.00;7.55;;;9.50;83.20;;;;;;5034434;28;20025;-67
2022/11/12 01:23:52;;;;;;;11.38;7.47;;;9.50;83.20;;;;;;5036070;28;20651;-67
2022/11/12 01:26:19;;;;;;;9.95;7.60;;;9.40;83.10;;;;;;5036006;28;20108;-66
2022/11/12 01:28:45;;;;;;;11.82;8.10;;;9.40;83.40;;;;;;5039229;28;20029;-67
2022/11/12 01:31:13;;;;;;;11.25;8.10;;;9.40;83.60;;;;;;5038494;28;20083;-67
2022/11/12 01:33:41;;;;;;;10.82;7.22;;;9.30;83.60;;;;;;5036213;28;20025;-69
2022/11/12 01:36:07;;;;;;;11.30;8.02;;;9.30;83.70;;;;;;5036194;28;20109;-69
2022/11/12 01:38:35;;;;;;;10.75;7.28;;;9.30;83.70;;;;;;5033783;28;20083;-69
2022/11/12 01:41:00;;;;;;;10.18;7.80;;;9.30;83.70;;;;;;5035817;28;20029;-69
2022/11/12 01:43:26;;;;;;;9.18;6.95;;;9.30;83.70;;;;;;5035122;28;20034;-69
2022/11/12 01:45:52;;;;;;;10.95;7.93;;;9.40;83.60;;;;;;5035865;28;20029;-70
2022/11/12 01:48:26;;;;;;;9.65;6.65;;;9.40;83.50;;;;;;5036256;28;20036;-69
2022/11/12 01:50:52;;;;;;;8.95;6.88;;;9.40;83.50;;;;;;5032947;28;20075;-68
2022/11/12 01:53:21;;;;;;;10.32;7.90;;;9.30;83.40;;;;;;5037338;28;20143;-68
2022/11/12 01:55:47;;;;;;;10.98;7.88;;;9.30;83.20;;;;;;5036538;28;20506;-70
2022/11/12 01:58:16;;;;;;;11.30;7.13;;;9.30;83.10;;;;;;5040785;28;20029;-69
2022/11/12 02:00:42;;;;;;;10.18;7.90;;;9.20;83.20;;;;;;5038774;28;20041;-69
2022/11/12 02:03:14;;;;;;;9.23;7.05;;;9.20;83.30;;;;;;5040304;28;20028;-69
2022/11/12 02:05:41;;;;;;;10.35;7.35;;;9.10;83.50;;;;;;5041789;28;20070;-69
2022/11/12 02:08:09;;;;;;;8.65;6.85;;;9.00;83.60;;;;;;5043412;28;20040;-69
2022/11/12 02:10:37;;;;;;;12.43;8.13;;;9.00;83.70;;;;;;5044986;28;20020;-70
2022/11/12 02:15:47;;;;;;;11.73;8.23;;;9.00;83.90;;;;;;5045174;28;20502;-69
2022/11/12 02:18:14;;;;;;;10.88;8.10;;;8.90;83.90;;;;;;5036742;28;20045;-70
2022/11/12 02:20:40;;;;;;;10.25;7.47;;;8.90;84.00;;;;;;5042028;28;20021;-67
2022/11/12 02:23:06;;;;;;;9.40;6.90;;;8.90;83.80;;;;;;5043748;28;20462;-67
2022/11/12 02:25:33;;;;;;;8.93;6.88;;;8.90;83.70;;;;;;5043308;28;20385;-67
2022/11/12 02:27:59;;;;;;;8.57;6.63;;;8.90;83.60;;;;;;5041694;28;20551;-66
2022/11/12 02:30:42;;;;;;;9.38;6.80;;;8.90;83.50;;;;;;5041644;28;20109;-67
2022/11/12 02:33:07;;;;;;;9.75;6.88;;;8.90;83.60;;;;;;5037707;28;20032;-67
2022/11/12 02:35:33;;;;;;;9.60;7.28;;;8.90;83.60;;;;;;5038966;28;20020;-67
2022/11/12 02:37:59;;;;;;;9.40;7.05;;;8.90;84.10;;;;;;5040630;28;20502;-67
2022/11/12 02:40:25;;;;;;;10.30;7.90;;;8.90;83.30;;;;;;5036479;28;20108;-70
2022/11/12 02:42:50;;;;;;;8.75;6.63;;;8.90;83.30;;;;;;5043467;28;20017;-70
2022/11/12 02:45:17;;;;;;;11.73;7.97;;;8.90;83.20;;;;;;5037762;28;20029;-69
2022/11/12 02:47:43;;;;;;;8.98;6.32;;;8.90;83.10;;;;;;5033701;28;20017;-69
2022/11/12 02:50:08;;;;;;;10.02;6.40;;;8.90;83.10;;;;;;5040791;28;20591;-69
2022/11/12 02:52:35;;;;;;;10.90;6.55;;;8.80;83.00;;;;;;5034906;28;20040;-70
2022/11/12 02:55:01;;;;;;;9.65;7.38;;;8.90;83.00;;;;;;5041617;28;20032;-69
2022/11/12 02:57:28;;;;;;;9.48;6.95;;;8.80;83.00;;;;;;5041895;28;20387;-70
2022/11/12 02:59:54;;;;;;;10.73;7.43;;;8.80;83.00;;;;;;5043505;28;20029;-70
2022/11/12 03:02:19;;;;;;;10.27;7.18;;;8.90;82.90;;;;;;5034711;28;20032;-70
2022/11/12 03:04:45;;;;;;;11.43;7.78;;;8.90;82.80;;;;;;5039485;28;20487;-69
2022/11/12 03:07:10;;;;;;;11.73;8.13;;;8.90;82.90;;;;;;5037582;28;20029;-68
2022/11/12 03:09:36;;;;;;;9.25;7.00;;;8.80;82.80;;;;;;5036518;28;20484;-68
2022/11/12 03:12:02;;;;;;;9.93;7.53;;;8.80;83.10;;;;;;5041406;28;20032;-68
2022/11/12 03:14:27;;;;;;;9.35;7.07;;;8.80;83.10;;;;;;5036015;28;20024;-71
2022/11/12 03:16:53;;;;;;;10.30;7.82;;;8.80;83.00;;;;;;5042844;28;20520;-69
2022/11/12 03:19:18;;;;;;;10.48;6.53;;;8.70;83.00;;;;;;5034938;28;20036;-69
2022/11/12 03:21:44;;;;;;;10.15;7.38;;;8.70;83.20;;;;;;5033397;28;20048;-69
2022/11/12 03:24:10;;;;;;;10.05;7.57;;;8.60;83.10;;;;;;5035943;28;20021;-69
2022/11/12 03:26:35;;;;;;;11.25;8.25;;;8.60;83.10;;;;;;5043532;28;20043;-68
2022/11/12 03:29:01;;;;;;;10.15;7.68;;;8.60;83.30;;;;;;5031702;28;20104;-70
2022/11/12 03:31:26;;;;;;;9.55;7.07;;;8.60;83.30;;;;;;5044193;28;20037;-70
2022/11/12 03:33:52;;;;;;;9.32;7.13;;;8.60;83.40;;;;;;5038573;28;20022;-69
2022/11/12 03:36:18;;;;;;;10.63;7.78;;;8.60;83.40;;;;;;5034623;28;20447;-69
2022/11/12 03:38:43;;;;;;;9.48;7.13;;;8.60;83.30;;;;;;5040204;28;20041;-70
2022/11/12 03:41:09;;;;;;;8.82;6.60;;;8.60;83.40;;;;;;5039470;28;20403;-69
2022/11/12 03:43:34;;;;;;;10.27;6.80;;;8.60;83.40;;;;;;5039329;28;20037;-69
2022/11/12 03:46:00;;;;;;;10.07;7.10;;;8.60;83.40;;;;;;5037158;28;20036;-69
2022/11/12 03:48:26;;;;;;;10.50;7.65;;;8.60;83.30;;;;;;5031651;28;20026;-71
2022/11/12 03:50:55;;;;;;;12.38;7.45;;;8.60;83.40;;;;;;5038961;28;20680;-69
2022/11/12 03:53:21;;;;;;;11.45;7.18;;;8.60;83.40;;;;;;5042056;28;20037;-69
2022/11/12 03:55:46;;;;;;;8.50;7.00;;;8.60;83.40;;;;;;5042921;28;20372;-67
2022/11/12 03:58:12;;;;;;;10.50;7.53;;;8.60;83.30;;;;;;5036340;28;20037;-67
2022/11/12 04:00:37;;;;;;;10.77;7.05;;;8.60;83.30;;;;;;5036219;28;20022;-68
2022/11/12 04:03:03;;;;;;;10.52;7.47;;;8.60;83.50;;;;;;5036817;28;20091;-68
2022/11/12 04:08:37;;;;;;;9.85;7.32;;;8.50;83.60;;;;;;5040542;28;20717;-68
2022/11/12 04:11:13;;;;;;;9.88;6.72;;;8.50;83.60;;;;;;5036142;28;20384;-68
2022/11/12 04:13:40;;;;;;;9.02;6.70;;;8.50;83.60;;;;;;5040604;28;20099;-68
2022/11/12 04:21:54;;;;;;;9.52;6.53;;;8.50;83.60;;;;;;5041291;28;20069;-69
2022/11/12 04:27:30;;;;;;;8.85;6.38;;;8.50;83.50;;;;;;5037194;28;20040;-68
2022/11/12 04:32:47;;;;;;;9.05;6.10;;;8.50;83.40;;;;;;5040526;28;20482;-68
2022/11/12 04:35:12;;;;;;;11.05;7.57;;;8.40;83.40;;;;;;5044183;28;20037;-69
2022/11/12 04:37:44;;;;;;;7.88;6.00;;;8.50;83.30;;;;;;5034773;28;20050;-69
2022/11/12 04:45:53;;;;;;;9.32;6.43;;;8.40;83.20;;;;;;5036485;28;20032;-69
2022/11/12 04:48:20;;;;;;;10.68;7.38;;;8.30;83.20;;;;;;5037682;28;20094;-68
2022/11/12 04:50:53;;;;;;;11.25;7.28;;;8.40;83.30;;;;;;5032768;28;20025;-69
2022/11/12 04:53:19;;;;;;;9.13;7.00;;;8.40;83.30;;;;;;5038075;28;20440;-68
2022/11/12 04:55:47;;;;;;;11.02;7.00;;;8.30;83.20;;;;;;5035358;28;20108;-68
2022/11/12 04:58:13;;;;;;;8.43;6.55;;;8.30;83.20;;;;;;5036253;28;20037;-68
2022/11/12 05:00:39;;;;;;;9.35;6.68;;;8.30;83.30;;;;;;5030828;28;20025;-69
2022/11/12 05:03:05;;;;;;;9.60;6.20;;;8.30;83.40;;;;;;5034337;28;20034;-69
2022/11/12 05:05:31;;;;;;;9.10;5.63;;;8.20;83.40;;;;;;5038103;28;20025;-69
2022/11/12 05:07:59;;;;;;;11.50;6.78;;;8.30;83.40;;;;;;5038089;28;20021;-69
2022/11/12 05:10:24;;;;;;;7.88;5.70;;;8.30;83.40;;;;;;5039577;28;20025;-68
2022/11/12 05:12:50;;;;;;;7.70;6.10;;;8.30;83.40;;;;;;5033997;28;20033;-69
2022/11/12 05:15:15;;;;;;;7.45;5.57;;;8.20;83.40;;;;;;5034502;28;20029;-69
2022/11/12 05:17:42;;;;;;;9.07;6.30;;;8.20;83.30;;;;;;5038807;28;20053;-69
2022/11/12 05:20:12;;;;;;;8.25;5.90;;;8.20;83.30;;;;;;5034277;28;20037;-70
2022/11/12 05:22:38;;;;;;;8.40;5.68;;;8.20;83.30;;;;;;5034381;28;20254;-69
2022/11/12 05:25:05;;;;;;;8.85;6.40;;;8.10;83.30;;;;;;5032158;28;20104;-68
2022/11/12 05:27:31;;;;;;;11.90;6.38;;;8.10;83.30;;;;;;5038841;28;20017;-69
2022/11/12 05:29:56;;;;;;;9.65;6.07;;;8.10;83.20;;;;;;5034647;28;20170;-69
2022/11/12 05:32:22;;;;;;;9.10;6.72;;;8.10;83.10;;;;;;5034917;28;20102;-69
2022/11/12 05:34:48;;;;;;;7.38;6.15;;;8.10;83.10;;;;;;5043026;28;20108;-69
2022/11/12 05:37:14;;;;;;;9.60;7.03;;;8.10;83.20;;;;;;5037397;28;20033;-68
2022/11/12 05:39:39;;;;;;;8.95;6.13;;;8.10;83.10;;;;;;5037729;28;20381;-71
2022/11/12 05:42:06;;;;;;;8.85;5.97;;;8.10;83.30;;;;;;5038029;28;20032;-68
2022/11/12 05:44:31;;;;;;;7.97;5.70;;;8.10;83.40;;;;;;5044020;28;20033;-67
2022/11/12 05:46:57;;;;;;;7.65;5.78;;;8.00;83.40;;;;;;5042490;28;20037;-68
2022/11/12 05:49:22;;;;;;;9.93;6.60;;;8.00;83.40;;;;;;5040749;28;20021;-68
2022/11/12 05:51:48;;;;;;;9.05;6.05;;;8.00;83.40;;;;;;5040446;28;20049;-69
2022/11/12 05:54:14;;;;;;;7.28;5.57;;;8.00;83.40;;;;;;5046133;28;20507;-70
2022/11/12 05:56:39;;;;;;;8.98;6.25;;;8.00;83.20;;;;;;5041278;28;20036;-70
2022/11/12 05:59:08;;;;;;;8.63;5.60;;;8.00;83.20;;;;;;5041382;28;20446;-69
2022/11/12 06:01:37;;;;;;;9.38;5.55;;;8.00;83.20;;;;;;5040003;28;20033;-69
2022/11/12 06:04:03;;;;;;;8.38;5.70;;;8.00;83.20;;;;;;5039960;28;20036;-69
2022/11/12 06:06:28;;;;;;;6.57;5.25;;;7.90;83.20;;;;;;5038341;28;20090;-68
2022/11/12 06:08:54;;;;;;;7.30;5.53;;;7.90;83.30;;;;;;5042080;28;20025;-70
2022/11/12 06:11:19;;;;;;;8.98;5.68;;;7.90;83.20;;;;;;5042556;28;20026;-70
2022/11/12 06:13:45;;;;;;;7.75;5.57;;;7.90;83.10;;;;;;5042967;28;20025;-69
2022/11/12 06:16:10;;;;;;;8.52;5.70;;;7.90;83.10;;;;;;5035194;28;20116;-69
2022/11/12 06:18:36;;;;;;;8.70;5.80;;;7.90;83.10;;;;;;5037958;28;20510;-69
2022/11/12 06:21:18;;;;;;;7.75;5.47;;;7.90;83.10;;;;;;5037549;28;20041;-69
2022/11/12 06:23:51;;;;;;;9.00;5.75;;;7.90;83.20;;;;;;5042943;28;20047;-70
2022/11/12 06:26:18;;;;;;;7.00;5.43;;;7.90;83.20;;;;;;5043448;28;20623;-70
2022/11/12 06:28:45;;;;;;;7.00;5.30;;;7.90;83.10;;;;;;5045015;28;20090;-70
2022/11/12 06:31:10;;;;;;;7.13;5.15;;;7.90;83.00;;;;;;5044838;28;20032;-70
2022/11/12 06:33:36;;;;;;;6.50;4.90;;;7.90;83.00;;;;;;5046201;28;20515;-69
2022/11/12 06:36:04;;;;;;;8.10;5.95;;;7.90;82.90;;;;;;5044541;28;20375;-70
2022/11/12 06:38:36;;;;;;;8.25;5.88;;;7.90;82.90;;;;;;5043232;28;20039;-68
2022/11/12 06:41:02;;;;;;;11.75;5.68;;;7.90;83.00;;;;;;5050045;28;20064;-69
2022/11/12 06:43:30;;;;;;;9.05;5.80;;;7.80;83.00;;;;;;5039397;28;20033;-69
2022/11/12 06:46:07;;;;;;;6.13;4.85;;;7.80;83.00;;;;;;5040764;28;20036;-69
2022/11/12 06:48:33;;;;;;;7.88;5.80;;;7.80;83.10;;;;;;5043108;28;20102;-69
2022/11/12 06:51:08;;;;;;;9.38;6.00;;;7.80;83.10;;;;;;5045475;28;20475;-70
2022/11/12 06:53:34;;;;;;;7.20;5.18;;;7.80;83.20;;;;;;5042711;28;20071;-70
2022/11/12 06:56:05;;;;;;;8.40;5.80;;;7.80;83.10;;;;;;5046129;28;20029;-70
2022/11/12 06:58:31;;;;;;;7.60;5.57;;;7.80;83.10;;;;;;5042144;28;20028;-70
2022/11/12 07:00:56;;;;;;;6.93;4.82;;;7.80;83.10;;;;;;5043858;28;20037;-69
2022/11/12 07:03:22;;;;;;;7.15;5.65;;;7.80;83.10;;;;;;5038531;28;20086;-68
2022/11/12 07:05:48;;;;;;;7.47;5.15;;;7.80;83.70;;;;;;5045723;28;20488;-69
2022/11/12 07:08:13;;;;;;;7.10;5.03;;;7.80;83.20;;;;;;5039273;28;20025;-68
2022/11/12 07:10:39;;;;;;;6.90;5.15;;;7.80;83.10;;;;;;5041395;28;20029;-68
2022/11/12 07:13:04;;;;;;;7.90;5.28;;;7.80;83.10;;;;;;5041600;28;20021;-68
2022/11/12 07:15:30;;;;;;;7.85;5.22;;;7.80;83.00;;;;;;5041265;28;20025;-69
2022/11/12 07:17:55;;;;;;;5.93;4.85;;;7.80;83.00;;;;;;5044268;28;20037;-70
2022/11/12 07:20:21;;;;;;;8.05;5.53;;;7.80;83.10;;;;;;5032460;28;20040;-68
2022/11/12 07:22:46;;;;;;;8.32;4.88;;;7.80;83.10;;;;;;5041976;28;20036;-70
2022/11/12 07:25:12;;;;;;;10.38;6.03;;;7.80;83.00;;;;;;5037676;28;20033;-68
2022/11/12 07:27:38;;;;;;;7.70;5.43;;;7.80;83.10;;;;;;5037034;28;20029;-67
2022/11/12 07:30:04;;;;;;;7.45;4.95;;;7.90;83.10;;;;;;5040219;28;20025;-69
2022/11/12 07:32:29;;;;;;;7.45;4.70;;;7.90;82.90;;;;;;5040798;28;20036;-69
2022/11/12 07:34:55;;;;;;;6.78;5.10;;;8.00;82.90;;;;;;5039811;28;20502;-68
2022/11/12 07:37:20;;;;;;;7.00;5.00;;;8.00;82.70;;;;;;5042607;28;20036;-70
2022/11/12 07:39:46;;;;;;;7.82;5.10;;;8.10;82.70;;;;;;5044608;28;20033;-68
2022/11/12 07:42:11;;;;;;;6.93;4.78;;;8.10;82.70;;;;;;5046680;28;20440;-68
2022/11/12 07:44:37;;;;;;;6.40;4.85;;;8.20;82.70;;;;;;5043653;28;20499;-67
2022/11/12 07:47:02;;;;;;;7.63;4.60;;;8.20;82.60;;;;;;5037407;28;20033;-69
2022/11/12 07:49:28;;;;;;;8.10;5.43;;;8.30;82.60;;;;;;5041300;28;20028;-67
2022/11/12 07:51:53;;;;;;;6.70;5.05;;;8.30;82.50;;;;;;5044076;28;20036;-68
2022/11/12 07:54:19;;;;;;;6.97;5.00;;;8.30;82.50;;;;;;5037722;28;20032;-69
2022/11/12 07:56:44;;;;;;;8.20;5.53;;;8.30;82.40;;;;;;5038486;28;20447;-68
2022/11/12 07:59:10;;;;;;;9.60;5.72;;;8.40;82.40;;;;;;5040477;28;20112;-68
2022/11/12 08:01:38;;;;;;;6.93;5.15;;;8.50;82.40;;;;;;5036254;28;20064;-67
2022/11/12 08:04:06;;;;;;;7.40;5.20;;;8.60;82.40;;;;;;5036450;28;20630;-68
2022/11/12 08:06:33;;;;;;;9.23;5.50;;;8.60;82.30;;;;;;5034043;28;20057;-67
2022/11/12 08:09:02;;;;;;;7.38;5.07;;;8.70;82.30;;;;;;5031755;28;20117;-67
2022/11/12 08:11:28;;;;;;;6.30;4.78;;;8.70;82.20;;;;;;5036589;28;20571;-68
2022/11/12 08:13:54;;;;;;;7.82;5.68;;;8.80;82.20;;;;;;5041476;28;20113;-68
2022/11/12 08:16:19;;;;;;;7.10;5.28;;;8.80;82.10;;;;;;5041192;28;20099;-67
2022/11/12 08:18:45;;;;;;;7.05;5.03;;;8.90;82.10;;;;;;5034776;28;20056;-67
2022/11/12 08:21:16;;;;;;;7.00;5.60;;;8.90;82.00;;;;;;5041553;28;20056;-67
2022/11/12 08:23:41;;;;;;;8.27;5.70;;;9.00;82.00;;;;;;5040717;28;20123;-67
2022/11/12 08:26:12;;;;;;;7.93;6.13;;;9.00;81.90;;;;;;5033702;28;20021;-67
2022/11/12 08:28:37;;;;;;;7.50;5.75;;;9.00;81.90;;;;;;5037998;28;20025;-68
2022/11/12 08:31:12;;;;;;;7.07;5.60;;;9.10;81.90;;;;;;5035861;28;20032;-69
2022/11/12 08:33:38;;;;;;;9.05;5.93;;;9.20;81.90;;;;;;5035357;28;20075;-68
2022/11/12 08:36:06;;;;;;;7.80;4.88;;;9.20;81.70;;;;;;5038133;28;20510;-68
2022/11/12 08:38:32;;;;;;;7.88;5.78;;;9.30;81.60;;;;;;5044075;28;20032;-69
2022/11/12 08:41:08;;;;;;;7.28;5.57;;;9.40;81.50;;;;;;5034465;28;20032;-68
2022/11/12 08:43:34;;;;;;;7.97;5.50;;;9.40;81.40;;;;;;5039574;28;20059;-68
2022/11/12 08:46:01;;;;;;;8.43;5.85;;;9.50;81.40;;;;;;5035647;28;20013;-68
2022/11/12 08:48:28;;;;;;;6.25;5.32;;;9.50;81.40;;;;;;5033744;28;20495;-68
2022/11/12 08:50:53;;;;;;;9.98;7.10;;;9.60;81.30;;;;;;5036394;28;20025;-67
2022/11/12 08:53:21;;;;;;;9.88;7.38;;;9.60;81.20;;;;;;5042137;28;20025;-67
2022/11/12 08:55:46;;;;;;;11.85;7.03;;;9.60;81.20;;;;;;5043417;28;20021;-68
2022/11/12 08:58:12;;;;;;;8.32;5.95;;;9.70;81.20;;;;;;5040453;28;20040;-68
2022/11/12 09:00:42;;;;;;;9.93;6.80;;;9.80;81.10;;;;;;5035037;28;20025;-68
2022/11/12 09:03:13;;;;;;;10.63;7.50;;;9.80;81.00;;;;;;5042645;28;20021;-68
2022/11/12 09:05:38;;;;;;;12.23;8.20;;;9.80;80.90;;;;;;5038577;28;20573;-67
2022/11/12 09:08:07;;;;;;;11.68;7.60;;;9.80;80.80;;;;;;5044975;28;20023;-68
2022/11/12 09:10:33;;;;;;;9.60;6.88;;;9.90;80.80;;;;;;5040701;28;20018;-68
2022/11/12 09:12:59;;;;;;;9.55;7.20;;;9.90;80.80;;;;;;5044066;28;20539;-67
2022/11/12 09:15:25;;;;;;;10.52;7.53;;;10.00;80.60;;;;;;5038692;28;20139;-68
2022/11/12 09:17:58;;;;;;;8.85;6.13;;;9.90;80.50;;;;;;5042829;28;20104;-68
2022/11/12 09:20:25;;;;;;;9.98;6.38;;;10.00;80.50;;;;;;5040246;28;20176;-68
2022/11/12 09:22:51;;;;;;;7.45;5.93;;;10.00;80.50;;;;;;5043233;28;20803;-69
2022/11/12 09:25:17;;;;;;;10.05;6.30;;;10.10;80.40;;;;;;5041383;28;20490;-68
2022/11/12 09:27:42;;;;;;;8.32;6.53;;;10.10;80.20;;;;;;5043116;28;20094;-68
2022/11/12 09:30:08;;;;;;;10.10;6.68;;;10.30;80.10;;;;;;5042924;28;20044;-68
2022/11/12 09:32:34;;;;;;;9.57;7.25;;;10.30;80.00;;;;;;5044486;28;20407;-68
2022/11/12 09:34:59;;;;;;;8.02;6.00;;;10.40;79.80;;;;;;5043510;28;20041;-68
2022/11/12 09:37:25;;;;;;;8.10;6.25;;;10.40;79.70;;;;;;5046595;28;20040;-68
2022/11/12 09:39:50;;;;;;;9.40;6.72;;;10.40;79.70;;;;;;5045026;28;20029;-68
2022/11/12 09:42:19;;;;;;;6.72;5.40;;;10.50;79.60;;;;;;5042344;28;20057;-68
2022/11/12 09:44:55;;;;;;;8.88;6.40;;;10.60;79.40;;;;;;5036724;28;20036;-68
2022/11/12 09:47:32;;;;;;;7.78;6.18;;;10.60;79.30;;;;;;5037928;28;20028;-68
2022/11/12 09:50:20;;;;;;;8.40;6.28;;;10.70;79.20;;;;;;5038133;28;20017;-66
2022/11/12 09:52:49;;;;;;;10.13;6.68;;;10.70;79.60;;;;;;5043766;28;20057;-68
2022/11/12 09:55:29;;;;;;;9.57;7.65;;;10.80;78.80;;;;;;5042973;28;20595;-68
2022/11/12 09:57:55;;;;;;;8.75;6.85;;;10.80;78.60;;;;;;5041368;28;20545;-68
2022/11/12 10:00:21;;;;;;;10.27;7.82;;;10.90;78.40;;;;;;5042488;28;20895;-68
2022/11/12 10:03:06;;;;;;;10.27;7.10;;;10.90;78.30;;;;;;5037997;28;20025;-68
2022/11/12 10:05:32;;;;;;;8.63;7.10;;;11.00;78.20;;;;;;5040846;28;20021;-68
2022/11/12 10:08:35;;;;;;;7.88;6.32;;;11.00;78.00;;;;;;5035031;28;20048;-68
2022/11/12 10:11:12;;;;;;;7.75;5.90;;;11.10;78.00;;;;;;5041462;28;20140;-68
2022/11/12 10:14:07;;;;;;;11.10;7.32;;;11.20;77.90;;;;;;5039058;28;20101;-68
2022/11/12 10:16:43;;;;;;;8.00;6.65;;;11.30;77.80;;;;;;5042254;28;20022;-68
2022/11/12 10:19:20;;;;;;;8.55;6.38;;;11.40;77.70;;;;;;5039447;28;20108;-68
2022/11/12 10:21:52;;;;;;;8.88;6.90;;;11.40;77.40;;;;;;5037648;28;20045;-69
2022/11/12 10:24:20;;;;;;;8.30;6.23;;;11.50;77.10;;;;;;5037583;28;20090;-69
2022/11/12 10:26:47;;;;;;;8.18;6.05;;;11.50;77.00;;;;;;5041022;28;20043;-69
2022/11/12 10:29:41;;;;;;;7.45;5.82;;;11.60;76.90;;;;;;5037429;28;20546;-69
2022/11/12 10:32:12;;;;;;;8.52;6.20;;;11.70;76.70;;;;;;5037638;28;20025;-68
2022/11/12 10:34:39;;;;;;;6.95;5.63;;;11.80;76.20;;;;;;5044815;28;20021;-68
2022/11/12 10:37:27;;;;;;;7.18;5.43;;;11.80;75.80;;;;;;5042029;28;20068;-69
2022/11/12 10:39:53;;;;;;;9.65;6.60;;;12.00;75.90;;;;;;5039105;28;20120;-68
2022/11/12 10:42:21;;;;;;;9.52;6.03;;;12.00;75.10;;;;;;5039348;28;20026;-69
2022/11/12 10:44:47;;;;;;;7.53;5.40;;;12.00;74.70;;;;;;5045525;28;20107;-69
2022/11/12 10:47:37;;;;;;;7.93;5.20;;;12.10;74.30;;;;;;5037356;28;20029;-69
2022/11/12 10:50:11;;;;;;;6.55;5.10;;;12.10;74.00;;;;;;5040955;28;20021;-70
2022/11/12 10:52:37;;;;;;;7.72;5.50;;;12.20;73.80;;;;;;5039829;28;20130;-69
2022/11/12 10:55:21;;;;;;;7.30;5.38;;;12.30;73.60;;;;;;5041401;28;20495;-69
2022/11/12 10:58:20;;;;;;;5.93;4.72;;;12.30;73.20;;;;;;5039163;28;20033;-69
2022/11/12 11:01:02;;;;;;;5.60;3.90;;;12.50;73.20;;;;;;5038870;28;20033;-68
2022/11/12 11:03:34;;;;;;;6.65;4.68;;;12.60;73.20;;;;;;5040355;28;20034;-69
2022/11/12 11:06:18;;;;;;;6.60;4.78;;;12.70;73.10;;;;;;5038516;28;20021;-68
2022/11/12 11:08:47;;;;;;;6.55;4.90;;;12.80;73.00;;;;;;5042350;28;20099;-69
2022/11/12 11:11:15;;;;;;;5.53;4.63;;;12.90;72.70;;;;;;5039137;28;20026;-69
2022/11/12 11:13:42;;;;;;;7.45;4.90;;;13.00;72.50;;;;;;5038505;28;20052;-69
2022/11/12 11:16:17;;;;;;;6.47;4.63;;;13.10;72.30;;;;;;5038733;28;20213;-70
2022/11/12 11:18:48;;;;;;;6.40;4.85;;;13.20;72.10;;;;;;5035549;28;20021;-68
2022/11/12 11:21:45;;;;;;;7.20;5.20;;;13.30;71.60;;;;;;5037920;28;20032;-69
2022/11/12 11:24:41;;;;;;;6.05;4.38;;;13.40;71.60;;;;;;5036557;28;20029;-69
2022/11/12 11:27:25;;;;;;;5.68;4.65;;;13.50;71.30;;;;;;5039854;28;20103;-68
2022/11/12 11:30:15;;;;;;;5.45;4.47;;;13.60;71.10;;;;;;5037451;28;20040;-69
2022/11/12 11:33:08;;;;;;;113.95;66.47;;;13.70;70.70;;;;;;5039727;28;20716;-69
2022/11/12 11:36:10;;;;;;;33.58;24.10;;;13.70;70.50;;;;;;5038213;28;20032;-68
2022/11/12 11:38:56;;;;;;;65.80;42.80;;;13.80;70.30;;;;;;5039032;28;20029;-69
2022/11/12 11:41:45;;;;;;;37.65;26.75;;;13.90;70.30;;;;;;5042643;28;20138;-69
2022/11/12 11:44:50;;;;;;;18.50;13.85;;;14.20;70.80;;;;;;5042051;28;20060;-70
2022/11/12 11:47:42;;;;;;;10.23;7.65;;;15.10;69.30;;;;;;5040203;28;20068;-69
2022/11/12 11:50:08;;;;;;;;;;;16.60;66.00;;;;;;5044218;28;20458;-69
2022/11/12 11:52:39;;;;;;;6.93;5.68;;;17.60;63.60;;;;;;5044614;28;19909;-69
2022/11/12 11:55:36;;;;;;;5.93;4.75;;;17.90;61.40;;;;;;5038294;28;20037;-67
2022/11/12 11:58:37;;;;;;;6.55;4.75;;;18.40;60.10;;;;;;5044560;28;20040;-68
2022/11/12 12:01:08;;;;;;;5.90;4.60;;;17.80;59.30;;;;;;5041535;28;20264;-68
2022/11/12 12:03:51;;;;;;;6.30;4.60;;;16.90;61.00;;;;;;5042677;28;20029;-68
2022/11/12 12:06:20;;;;;;;6.45;4.70;;;16.30;62.50;;;;;;5035406;28;20052;-68
2022/11/12 12:08:56;;;;;;;6.20;3.55;;;16.00;63.70;;;;;;5036547;28;20025;-68
2022/11/12 12:11:47;;;;;;;6.85;4.22;;;16.10;65.10;;;;;;5041854;28;20025;-69
2022/11/12 12:14:34;;;;;;;5.32;4.10;;;17.10;63.30;;;;;;5038744;28;20154;-67
2022/11/12 12:17:14;;;;;;;4.47;3.70;;;18.20;60.50;;;;;;5033851;28;20109;-68
2022/11/12 12:20:06;;;;;;;4.65;3.85;;;18.90;59.40;;;;;;5036731;28;20024;-68
2022/11/12 12:22:47;;;;;;;5.68;3.95;;;19.30;58.10;;;;;;5033229;28;20527;-68
2022/11/12 12:25:19;;;;;;;5.82;4.53;;;19.90;57.50;;;;;;5035199;28;20057;-68
2022/11/12 12:28:07;;;;;;;4.55;3.83;;;19.90;56.40;;;;;;5040133;28;20036;-69
2022/11/12 12:30:38;;;;;;;4.70;3.85;;;20.10;56.40;;;;;;5038000;28;20128;-68
2022/11/12 12:33:32;;;;;;;4.38;3.33;;;20.10;56.60;;;;;;5032938;28;20468;-68
2022/11/12 12:36:04;;;;;;;4.20;3.40;;;20.00;55.70;;;;;;5035816;28;20031;-68
2022/11/12 12:39:04;;;;;;;5.47;3.60;;;20.00;55.80;;;;;;5034353;28;20500;-68
2022/11/12 12:41:38;;;;;;;4.55;3.30;;;20.40;55.40;;;;;;5040562;28;20052;-67
2022/11/12 12:44:05;;;;;;;4.38;2.95;;;20.70;55.20;;;;;;5039207;28;20029;-67
2022/11/12 12:46:37;;;;;;;3.10;2.60;;;21.00;55.10;;;;;;5038342;28;20503;-68
2022/11/12 12:49:06;;;;;;;3.67;3.08;;;21.00;54.60;;;;;;5034739;28;20025;-68
2022/11/12 12:51:33;;;;;;;4.45;3.10;;;20.70;54.00;;;;;;5037182;28;20024;-68
2022/11/12 12:53:58;;;;;;;5.07;3.38;;;20.90;54.50;;;;;;5045959;28;20051;-68
2022/11/12 12:56:27;;;;;;;4.82;3.60;;;21.00;54.00;;;;;;5037780;28;20017;-68
2022/11/12 12:58:54;;;;;;;5.88;5.10;;;21.00;53.10;;;;;;5039118;28;20491;-68
2022/11/12 13:01:19;;;;;;;5.40;3.60;;;20.90;53.60;;;;;;5043988;28;20029;-67
2022/11/12 13:03:48;;;;;;;4.55;3.38;;;20.50;54.00;;;;;;5037921;28;20040;-68
2022/11/12 13:06:21;;;;;;;6.68;4.78;;;20.10;54.80;;;;;;5041164;28;20017;-67
2022/11/12 13:09:11;;;;;;;5.63;3.70;;;19.70;55.80;;;;;;5042855;28;20018;-67
2022/11/12 13:14:44;;;;;;;4.63;3.85;;;19.10;56.50;;;;;;5036115;28;20039;-68
2022/11/12 13:17:10;;;;;;;6.75;4.95;;;18.70;57.60;;;;;;5034464;28;20087;-67
2022/11/12 13:19:56;;;;;;;5.50;4.55;;;18.30;58.10;;;;;;5036349;28;20025;-69
2022/11/12 13:22:22;;;;;;;7.88;5.70;;;18.10;58.90;;;;;;5035294;28;20383;-67
2022/11/12 13:25:06;;;;;;;10.50;6.00;;;17.90;58.60;;;;;;5030823;28;20022;-68
2022/11/12 13:27:38;;;;;;;6.43;5.10;;;17.60;59.00;;;;;;5037500;28;20483;-67
2022/11/12 13:30:27;;;;;;;7.53;5.35;;;17.60;59.70;;;;;;5038822;28;20108;-67